Terminal Aerodrome Forecast
Issued by NWS Cleveland, OH

Home | Current Version | Previous Version | Text Only | Print | Product List | Glossary On
Versions: 1 2 3 4 5 6 7 8 9 10 11 12 13 14 15 16 17 18 19 20 21 22 23
000
FTUS41 KCLE 160500
TAFYNG
TAF
KYNG 160520Z 1606/1706 34008KT 4SM -RA BR BKN003 OVC015
      TEMPO 1606/1609 2SM -RA BR SCT003 OVC015
     FM160900 32004KT 3SM BR OVC003
      TEMPO 1609/1613 3/4SM BR OVC006
     FM161400 34005KT 6SM BR BKN012 OVC025
     FM161800 33006KT P6SM SCT012 BKN025
     FM162200 33008KT P6SM SCT035
     FM170100 31004KT P6SM SKC=

USA.gov is the U.S. government's official web portal to all federal, state and local government web resources and services.